createdAt,value
2022-09-02T00:01:57.866Z,13.60
2022-09-02T00:04:28.715Z,13.60
2022-09-02T00:06:57.873Z,13.60
2022-09-02T00:09:27.644Z,13.60
2022-09-02T00:11:59.277Z,13.60
2022-09-02T00:14:31.418Z,13.50
2022-09-02T00:17:01.686Z,13.50
2022-09-02T00:19:31.724Z,13.40
2022-09-02T00:22:02.225Z,13.50
2022-09-02T00:24:31.710Z,13.40
2022-09-02T00:27:02.362Z,13.30
2022-09-02T00:29:31.714Z,13.30
2022-09-02T00:32:01.042Z,13.20
2022-09-02T00:34:30.195Z,13.20
2022-09-02T00:36:59.239Z,13.20
2022-09-02T00:39:28.346Z,13.10
2022-09-02T00:41:57.466Z,13.10
2022-09-02T00:44:27.915Z,13.00
2022-09-02T00:46:56.989Z,13.00
2022-09-02T00:49:28.598Z,13.10
2022-09-02T00:52:04.293Z,13.00
2022-09-02T00:54:36.538Z,13.00
2022-09-02T00:57:11.324Z,13.00
2022-09-02T00:59:48.005Z,12.90
2022-09-02T01:02:17.555Z,12.90
2022-09-02T01:04:47.495Z,12.90
2022-09-02T01:07:17.477Z,12.90
2022-09-02T01:09:46.674Z,12.80
2022-09-02T01:12:16.432Z,12.80
2022-09-02T01:14:47.474Z,12.80
2022-09-02T01:17:17.393Z,12.70
2022-09-02T01:19:51.394Z,12.70
2022-09-02T01:22:23.518Z,12.70
2022-09-02T01:24:53.253Z,12.80
2022-09-02T01:27:24.426Z,12.80
2022-09-02T01:29:54.695Z,12.80
2022-09-02T01:32:24.386Z,12.80
2022-09-02T01:34:53.517Z,12.70
2022-09-02T01:37:25.067Z,12.60
2022-09-02T01:39:54.724Z,12.60
2022-09-02T01:42:24.494Z,12.50
2022-09-02T01:44:54.650Z,12.60
2022-09-02T01:47:27.297Z,12.60
2022-09-02T01:49:57.064Z,12.70
2022-09-02T01:52:29.934Z,12.70
2022-09-02T01:54:59.624Z,12.70
2022-09-02T01:57:28.988Z,12.70
2022-09-02T01:59:58.343Z,12.70
2022-09-02T02:02:28.859Z,12.70
2022-09-02T02:04:57.977Z,12.70
2022-09-02T02:07:29.826Z,12.70
2022-09-02T02:09:58.945Z,12.60
2022-09-02T02:12:31.334Z,12.60
2022-09-02T02:15:03.652Z,12.60
2022-09-02T02:17:32.899Z,12.60
2022-09-02T02:20:02.705Z,12.60
2022-09-02T02:22:33.297Z,12.60
2022-09-02T02:25:02.554Z,12.60
2022-09-02T02:27:32.647Z,12.60
2022-09-02T02:30:06.869Z,12.50
2022-09-02T02:32:36.891Z,12.40
2022-09-02T02:35:07.280Z,12.40
2022-09-02T02:37:38.508Z,12.40
2022-09-02T02:40:09.399Z,12.40
2022-09-02T02:42:38.769Z,12.50
2022-09-02T02:45:15.194Z,12.50
2022-09-02T02:47:47.352Z,12.40
2022-09-02T02:50:20.520Z,12.40
2022-09-02T02:52:53.625Z,12.40
2022-09-02T02:55:25.296Z,12.40
2022-09-02T02:57:54.519Z,12.20
2022-09-02T03:00:26.076Z,12.20
2022-09-02T03:02:57.921Z,12.20
2022-09-02T03:05:27.790Z,12.20
2022-09-02T03:07:59.781Z,12.20
2022-09-02T03:10:29.353Z,12.20
2022-09-02T03:12:58.977Z,12.20
2022-09-02T03:15:28.616Z,12.10
2022-09-02T03:17:59.053Z,12.10
2022-09-02T03:20:28.333Z,12.20
2022-09-02T03:23:04.012Z,12.10
2022-09-02T03:25:35.910Z,12.00
2022-09-02T03:28:13.363Z,12.00
2022-09-02T03:30:43.637Z,12.00
2022-09-02T03:33:13.098Z,12.00
2022-09-02T03:35:43.785Z,12.00
2022-09-02T03:38:15.546Z,11.90
2022-09-02T03:40:45.597Z,12.00
2022-09-02T03:43:15.280Z,11.90
2022-09-02T03:45:45.036Z,11.90
2022-09-02T03:48:17.386Z,11.80
2022-09-02T03:50:48.579Z,11.80
2022-09-02T03:53:21.907Z,11.70
2022-09-02T03:55:56.895Z,11.60
2022-09-02T03:58:28.339Z,11.40
2022-09-02T04:01:00.263Z,11.40
2022-09-02T04:03:29.734Z,11.50
2022-09-02T04:05:59.393Z,11.50
2022-09-02T04:08:31.925Z,11.50
2022-09-02T04:11:07.695Z,11.40
2022-09-02T04:13:38.057Z,11.50
2022-09-02T04:16:12.011Z,11.40
2022-09-02T04:18:41.679Z,11.40
2022-09-02T04:21:13.914Z,11.40
2022-09-02T04:23:45.497Z,11.30
2022-09-02T04:26:17.770Z,11.40
2022-09-02T04:28:47.402Z,11.50
2022-09-02T04:31:19.889Z,11.50
2022-09-02T04:33:52.591Z,11.60
2022-09-02T04:36:22.712Z,11.60
2022-09-02T04:38:58.576Z,11.60
2022-09-02T04:41:32.573Z,11.50
2022-09-02T04:44:07.613Z,11.50
2022-09-02T04:46:40.924Z,11.50
2022-09-02T04:49:14.645Z,12.20
2022-09-02T04:51:45.428Z,13.80
2022-09-02T04:54:16.184Z,15.40
2022-09-02T04:56:49.488Z,16.90
2022-09-02T04:59:21.490Z,18.10
2022-09-02T05:02:06.196Z,19.30
2022-09-02T05:04:36.393Z,20.10
2022-09-02T05:07:08.636Z,20.30
2022-09-02T05:09:46.015Z,20.90
2022-09-02T05:12:15.989Z,21.20
2022-09-02T05:14:50.517Z,21.90
2022-09-02T05:17:22.326Z,23.10
2022-09-02T05:19:51.963Z,23.20
2022-09-02T05:22:21.730Z,23.30
2022-09-02T05:24:52.491Z,23.20
2022-09-02T05:27:23.771Z,23.00
2022-09-02T05:29:59.333Z,22.80
2022-09-02T05:32:32.387Z,22.70
2022-09-02T05:35:04.159Z,23.00
2022-09-02T05:37:35.940Z,23.50
2022-09-02T05:40:14.833Z,23.30
2022-09-02T05:42:45.778Z,23.10
2022-09-02T05:45:19.534Z,23.30
2022-09-02T05:47:50.565Z,23.90
2022-09-02T05:50:20.981Z,23.80
2022-09-02T05:52:52.899Z,23.30
2022-09-02T05:55:25.698Z,23.10
2022-09-02T05:57:54.999Z,22.70
2022-09-02T06:00:25.868Z,22.70
2022-09-02T06:03:01.794Z,23.90
2022-09-02T06:05:38.674Z,24.70
2022-09-02T06:08:14.639Z,24.40
2022-09-02T06:10:45.718Z,23.60
2022-09-02T06:13:21.764Z,24.30
2022-09-02T06:15:53.281Z,25.30
2022-09-02T06:18:26.694Z,26.80
2022-09-02T06:20:58.022Z,27.90
2022-09-02T06:23:32.922Z,28.00
2022-09-02T06:26:06.397Z,27.80
2022-09-02T06:28:37.264Z,27.30
2022-09-02T06:31:12.046Z,26.30
2022-09-02T06:33:42.819Z,25.60
2022-09-02T06:36:17.703Z,25.10
2022-09-02T06:38:51.059Z,24.80
2022-09-02T06:41:25.055Z,24.40
2022-09-02T06:43:57.354Z,24.10
2022-09-02T06:46:30.651Z,23.80
2022-09-02T06:49:03.607Z,23.50
2022-09-02T06:51:36.152Z,23.50
2022-09-02T06:54:08.114Z,23.30
2022-09-02T06:56:45.994Z,23.10
2022-09-02T06:59:20.825Z,22.60
2022-09-02T07:01:57.111Z,22.90
2022-09-02T07:04:44.715Z,23.20
2022-09-02T07:07:17.675Z,23.50
2022-09-02T07:09:53.909Z,23.50
2022-09-02T07:12:27.418Z,23.60
2022-09-02T07:15:01.984Z,23.30
2022-09-02T07:17:36.426Z,22.60
2022-09-02T07:20:09.105Z,21.80
2022-09-02T07:22:43.628Z,21.60
2022-09-02T07:25:16.687Z,21.70
2022-09-02T07:27:47.444Z,21.40
2022-09-02T07:30:16.910Z,21.60
2022-09-02T07:32:48.222Z,22.10
2022-09-02T07:35:18.202Z,21.80
2022-09-02T07:37:48.032Z,21.70
2022-09-02T07:40:17.533Z,21.60
2022-09-02T07:42:51.016Z,21.80
2022-09-02T07:45:22.306Z,21.70
2022-09-02T07:47:52.252Z,21.80
2022-09-02T07:50:22.991Z,22.00
2022-09-02T07:52:56.910Z,22.40
2022-09-02T07:55:28.281Z,22.70
2022-09-02T07:58:00.420Z,23.00
2022-09-02T08:00:30.435Z,23.50
2022-09-02T08:05:42.099Z,23.20
2022-09-02T08:08:11.310Z,23.60
2022-09-02T08:10:40.803Z,23.60
2022-09-02T08:13:11.670Z,23.70
2022-09-02T08:15:41.591Z,24.10
2022-09-02T08:18:12.526Z,24.50
2022-09-02T08:20:51.347Z,24.20
2022-09-02T08:23:36.303Z,24.10
2022-09-02T08:26:07.965Z,24.30
2022-09-02T08:28:39.749Z,25.00
2022-09-02T08:31:09.734Z,25.20
2022-09-02T08:33:39.878Z,23.90
2022-09-02T08:36:12.208Z,23.70
2022-09-02T08:38:41.540Z,23.90
2022-09-02T08:41:19.558Z,24.30
2022-09-02T08:43:53.116Z,24.70
2022-09-02T08:46:26.796Z,24.20
2022-09-02T08:49:00.615Z,24.10
2022-09-02T08:51:37.184Z,24.10
2022-09-02T08:54:11.609Z,24.10
2022-09-02T08:56:42.682Z,24.50
2022-09-02T08:59:15.433Z,24.20
2022-09-02T09:01:52.404Z,23.80
2022-09-02T09:04:34.896Z,23.90
2022-09-02T09:07:22.121Z,24.40
2022-09-02T09:10:05.025Z,24.80
2022-09-02T09:12:49.851Z,25.20
2022-09-02T09:15:31.950Z,25.50
2022-09-02T09:18:04.339Z,24.50
2022-09-02T09:20:36.820Z,23.90
2022-09-02T09:23:22.138Z,23.20
2022-09-02T09:25:55.530Z,22.40
2022-09-02T09:28:24.982Z,22.20
2022-09-02T09:30:56.178Z,21.90
2022-09-02T09:33:25.790Z,21.80
2022-09-02T09:35:58.978Z,21.50
2022-09-02T09:38:33.361Z,21.80
2022-09-02T09:41:17.117Z,21.70
2022-09-02T09:43:47.400Z,21.70
2022-09-02T09:46:29.216Z,21.60
2022-09-02T09:48:58.676Z,21.70
2022-09-02T09:51:28.127Z,21.90
2022-09-02T09:54:17.186Z,22.10
2022-09-02T09:56:47.156Z,22.00
2022-09-02T09:59:39.323Z,21.50
2022-09-02T10:02:21.734Z,21.50
2022-09-02T10:04:54.189Z,21.70
2022-09-02T10:07:38.177Z,22.20
2022-09-02T10:10:21.601Z,21.70
2022-09-02T10:12:53.677Z,21.70
2022-09-02T10:15:39.201Z,21.40
2022-09-02T10:18:25.596Z,21.40
2022-09-02T10:21:15.673Z,22.00
2022-09-02T10:23:52.923Z,22.30
2022-09-02T10:26:31.713Z,22.10
2022-09-02T10:29:43.427Z,21.50
2022-09-02T10:32:29.077Z,20.80
2022-09-02T10:35:13.107Z,20.70
2022-09-02T10:37:57.088Z,20.60
2022-09-02T10:40:35.476Z,20.70
2022-09-02T10:43:08.363Z,21.00
2022-09-02T10:45:44.593Z,21.10
2022-09-02T10:48:34.864Z,21.20
2022-09-02T10:51:10.443Z,21.30
2022-09-02T10:53:53.702Z,21.30
2022-09-02T10:56:26.964Z,21.60
2022-09-02T10:59:01.335Z,21.60
2022-09-02T11:01:35.002Z,21.90
2022-09-02T11:04:12.021Z,21.90
2022-09-02T11:07:01.820Z,21.70
2022-09-02T11:09:39.637Z,21.60
2022-09-02T11:12:16.878Z,21.70
2022-09-02T11:14:58.675Z,21.20
2022-09-02T11:17:36.115Z,21.30
2022-09-02T11:20:14.596Z,21.60
2022-09-02T11:22:56.198Z,22.20
2022-09-02T11:25:29.718Z,22.80
2022-09-02T11:28:14.474Z,23.10
2022-09-02T11:33:32.827Z,23.50
2022-09-02T11:36:03.146Z,23.50
2022-09-02T11:38:42.130Z,22.80
2022-09-02T11:41:35.866Z,22.20
2022-09-02T11:44:25.862Z,21.90
2022-09-02T11:47:11.523Z,21.80
2022-09-02T11:49:58.143Z,21.70
2022-09-02T11:52:37.428Z,22.00
2022-09-02T11:55:17.200Z,22.20
2022-09-02T11:57:54.755Z,22.50
2022-09-02T12:00:31.650Z,23.00
2022-09-02T12:03:40.928Z,23.50
2022-09-02T12:06:14.139Z,23.40
2022-09-02T12:09:09.959Z,23.00
2022-09-02T12:11:55.248Z,22.60
2022-09-02T12:15:08.567Z,22.70
2022-09-02T12:17:47.930Z,22.10
2022-09-02T12:20:51.616Z,22.00
2022-09-02T12:23:58.925Z,22.20
2022-09-02T12:26:32.037Z,22.40
2022-09-02T12:29:32.451Z,22.60
2022-09-02T12:32:03.271Z,23.10
2022-09-02T12:34:55.513Z,23.00
2022-09-02T12:37:56.420Z,22.70
2022-09-02T12:40:38.406Z,22.50
2022-09-02T12:43:20.730Z,22.40
2022-09-02T12:45:55.368Z,22.50
2022-09-02T12:48:38.239Z,22.50
2022-09-02T12:51:08.896Z,22.40
2022-09-02T12:53:43.429Z,22.10
2022-09-02T12:56:24.397Z,21.70
2022-09-02T12:59:02.301Z,21.50
2022-09-02T13:01:45.564Z,21.40
2022-09-02T13:04:31.856Z,21.60
2022-09-02T13:07:36.814Z,21.80
2022-09-02T13:10:39.924Z,21.90
2022-09-02T13:13:41.673Z,22.20
2022-09-02T13:16:19.372Z,22.20
2022-09-02T13:22:25.564Z,22.30
2022-09-02T13:25:14.632Z,22.70
2022-09-02T13:28:18.695Z,22.50
2022-09-02T13:31:06.554Z,22.70
2022-09-02T13:33:41.906Z,22.90
2022-09-02T13:36:13.175Z,22.90
2022-09-02T13:38:45.018Z,22.90
2022-09-02T13:41:32.903Z,22.60
2022-09-02T13:44:11.076Z,22.50
2022-09-02T13:46:49.257Z,22.60
2022-09-02T13:49:24.274Z,22.80
2022-09-02T13:51:56.756Z,23.00
2022-09-02T13:54:35.105Z,23.40
2022-09-02T13:57:06.862Z,23.20
2022-09-02T13:59:38.934Z,22.80
2022-09-02T14:02:22.246Z,22.80
2022-09-02T14:04:56.603Z,22.80
2022-09-02T14:07:32.499Z,22.70
2022-09-02T14:10:10.948Z,22.80
2022-09-02T14:12:42.813Z,22.80
2022-09-02T14:15:16.994Z,22.30
2022-09-02T14:17:47.489Z,22.00
2022-09-02T14:20:22.431Z,21.90
2022-09-02T14:22:57.090Z,21.90
2022-09-02T14:25:37.090Z,21.90
2022-09-02T14:28:13.917Z,21.80
2022-09-02T14:30:44.396Z,21.50
2022-09-02T14:33:26.389Z,21.40
2022-09-02T14:36:03.569Z,21.40
2022-09-02T14:38:37.010Z,21.30
2022-09-02T14:41:13.738Z,21.30
2022-09-02T14:43:49.500Z,21.50
2022-09-02T14:46:27.893Z,21.50
2022-09-02T14:49:02.438Z,21.60
2022-09-02T14:51:40.278Z,21.70
2022-09-02T14:54:10.427Z,21.60
2022-09-02T14:56:59.863Z,21.70
2022-09-02T14:59:29.875Z,21.70
2022-09-02T15:02:00.943Z,21.70
2022-09-02T15:04:30.184Z,21.70
2022-09-02T15:06:59.638Z,21.70
2022-09-02T15:09:29.114Z,21.80
2022-09-02T15:12:02.762Z,21.80
2022-09-02T15:14:32.395Z,21.70
2022-09-02T15:17:11.581Z,21.50
2022-09-02T15:19:41.597Z,21.20
2022-09-02T15:22:11.481Z,21.10
2022-09-02T15:24:43.661Z,20.80
2022-09-02T15:27:15.022Z,20.70
2022-09-02T15:29:46.711Z,20.70
2022-09-02T15:32:16.172Z,20.60
2022-09-02T15:34:45.717Z,20.70
2022-09-02T15:37:15.067Z,20.60
2022-09-02T15:39:44.652Z,20.50
2022-09-02T15:42:15.356Z,20.60
2022-09-02T15:44:44.537Z,20.60
2022-09-02T15:47:13.896Z,20.70
2022-09-02T15:49:43.442Z,20.80
2022-09-02T15:52:12.813Z,20.90
2022-09-02T15:54:42.172Z,21.00
2022-09-02T15:57:11.912Z,21.10
2022-09-02T15:59:42.952Z,21.20
2022-09-02T16:02:12.362Z,21.30
2022-09-02T16:04:41.973Z,21.40
2022-09-02T16:07:15.388Z,21.50
2022-09-02T16:09:46.914Z,21.30
2022-09-02T16:12:16.354Z,21.20
2022-09-02T16:14:51.322Z,21.10
2022-09-02T16:17:20.765Z,20.80
2022-09-02T16:19:50.122Z,20.70
2022-09-02T16:22:19.271Z,20.70
2022-09-02T16:24:48.521Z,20.70
2022-09-02T16:27:37.937Z,20.50
2022-09-02T16:30:09.867Z,20.40
2022-09-02T16:32:40.909Z,20.40
2022-09-02T16:35:11.539Z,20.30
2022-09-02T16:37:41.146Z,20.40
2022-09-02T16:40:13.631Z,20.50
2022-09-02T16:42:42.848Z,20.50
2022-09-02T16:45:13.440Z,20.50
2022-09-02T16:47:42.671Z,20.50
2022-09-02T16:50:12.938Z,20.40
2022-09-02T16:52:42.597Z,20.30
2022-09-02T16:55:17.949Z,20.30
2022-09-02T16:57:47.218Z,20.30
2022-09-02T17:00:18.898Z,20.20
2022-09-02T17:02:48.471Z,20.30
2022-09-02T17:05:19.057Z,20.20
2022-09-02T17:07:48.355Z,20.30
2022-09-02T17:10:17.707Z,20.30
2022-09-02T17:12:47.237Z,20.20
2022-09-02T17:15:18.150Z,20.10
2022-09-02T17:17:47.487Z,20.00
2022-09-02T17:20:17.009Z,19.90
2022-09-02T17:22:46.594Z,19.80
2022-09-02T17:25:16.193Z,19.70
2022-09-02T17:27:46.101Z,19.60
2022-09-02T17:30:16.080Z,19.60
2022-09-02T17:32:46.881Z,19.50
2022-09-02T17:35:17.940Z,19.40
2022-09-02T17:37:48.686Z,19.30
2022-09-02T17:40:35.869Z,19.10
2022-09-02T17:43:05.191Z,19.20
2022-09-02T17:45:35.633Z,19.00
2022-09-02T17:48:34.378Z,19.00
2022-09-02T17:50:56.866Z,19.00
2022-09-02T17:53:26.949Z,18.90
2022-09-02T17:56:04.613Z,18.90
2022-09-02T17:58:40.600Z,18.90
2022-09-02T18:01:15.098Z,19.00
2022-09-02T18:04:00.581Z,19.00
2022-09-02T18:06:38.008Z,18.80
2022-09-02T18:09:09.951Z,18.90
2022-09-02T18:11:40.456Z,18.80
2022-09-02T18:14:18.307Z,18.80
2022-09-02T18:17:00.914Z,18.70
2022-09-02T18:19:46.147Z,18.80
2022-09-02T18:22:35.912Z,18.80
2022-09-02T18:25:16.586Z,18.70
2022-09-02T18:27:55.938Z,18.60
2022-09-02T18:30:33.772Z,18.60
2022-09-02T18:33:25.078Z,18.60
2022-09-02T18:36:10.510Z,18.60
2022-09-02T18:38:48.308Z,18.50
2022-09-02T18:41:27.495Z,18.40
2022-09-02T18:44:09.364Z,18.40
2022-09-02T18:46:49.916Z,18.30
2022-09-02T18:49:21.404Z,18.30
2022-09-02T18:51:57.515Z,18.30
2022-09-02T18:54:29.008Z,18.30
2022-09-02T18:57:00.499Z,18.20
2022-09-02T18:59:35.658Z,18.10
2022-09-02T19:02:15.827Z,17.90
2022-09-02T19:04:45.212Z,17.90
2022-09-02T19:07:33.884Z,17.90
2022-09-02T19:10:04.156Z,17.80
2022-09-02T19:12:35.331Z,17.80
2022-09-02T19:15:07.768Z,17.70
2022-09-02T19:17:37.093Z,17.80
2022-09-02T19:20:07.278Z,17.80
2022-09-02T19:22:41.167Z,17.80
2022-09-02T19:25:13.819Z,17.90
2022-09-02T19:27:45.385Z,17.80
2022-09-02T19:30:19.141Z,17.80
2022-09-02T19:32:51.681Z,17.80
2022-09-02T19:35:24.106Z,17.80
2022-09-02T19:37:56.365Z,17.80
2022-09-02T19:40:29.174Z,17.80
2022-09-02T19:42:58.395Z,17.70
2022-09-02T19:45:29.733Z,17.70
2022-09-02T19:48:07.115Z,17.70
2022-09-02T19:50:38.760Z,17.70
2022-09-02T19:53:11.021Z,17.50
2022-09-02T19:55:40.260Z,17.40
2022-09-02T19:58:09.793Z,17.40
2022-09-02T20:00:42.624Z,17.30
2022-09-02T20:03:13.491Z,17.00
2022-09-02T20:05:42.943Z,17.00
2022-09-02T20:08:13.422Z,17.00
2022-09-02T20:10:42.536Z,16.90
2022-09-02T20:13:14.415Z,16.80
2022-09-02T20:15:43.446Z,16.80
2022-09-02T20:18:15.299Z,16.80
2022-09-02T20:20:45.502Z,16.70
2022-09-02T20:23:17.762Z,16.80
2022-09-02T20:25:58.312Z,16.70
2022-09-02T20:28:35.179Z,16.60
2022-09-02T20:31:10.667Z,16.60
2022-09-02T20:33:47.249Z,16.50
2022-09-02T20:36:23.217Z,16.40
2022-09-02T20:39:12.598Z,16.30
2022-09-02T20:41:50.626Z,16.40
2022-09-02T20:44:38.824Z,16.40
2022-09-02T20:47:31.988Z,16.30
2022-09-02T20:50:23.699Z,16.30
2022-09-02T20:53:02.917Z,16.20
2022-09-02T20:55:40.468Z,16.10
2022-09-02T20:58:19.667Z,16.10
2022-09-02T21:01:01.665Z,16.00
2022-09-02T21:03:40.373Z,16.00
2022-09-02T21:06:16.414Z,15.90
2022-09-02T21:08:59.037Z,15.80
2022-09-02T21:11:37.613Z,15.90
2022-09-02T21:14:11.586Z,15.90
2022-09-02T21:16:48.245Z,16.00
2022-09-02T21:19:24.777Z,16.00
2022-09-02T21:21:58.220Z,16.00
2022-09-02T21:24:34.298Z,15.90
2022-09-02T21:27:09.019Z,15.90
2022-09-02T21:29:43.861Z,15.80
2022-09-02T21:32:21.142Z,15.80
2022-09-02T21:34:55.800Z,15.80
2022-09-02T21:37:26.882Z,15.80
2022-09-02T21:40:02.383Z,15.70
2022-09-02T21:42:44.114Z,15.70
2022-09-02T21:45:22.758Z,15.80
2022-09-02T21:47:58.389Z,15.80
2022-09-02T21:50:37.583Z,15.90
2022-09-02T21:53:17.064Z,15.80
2022-09-02T21:55:59.557Z,15.80
2022-09-02T21:58:55.827Z,15.80
2022-09-02T22:01:44.320Z,15.70
2022-09-02T22:04:28.431Z,15.70
2022-09-02T22:07:07.608Z,15.50
2022-09-02T22:09:36.857Z,15.50
2022-09-02T22:12:11.328Z,15.40
2022-09-02T22:14:48.348Z,15.30
2022-09-02T22:17:25.185Z,15.20
2022-09-02T22:19:59.446Z,15.20
2022-09-02T22:22:31.758Z,15.10
2022-09-02T22:25:00.917Z,15.10
2022-09-02T22:27:36.498Z,15.20
2022-09-02T22:30:09.963Z,15.10
2022-09-02T22:32:42.568Z,15.20
2022-09-02T22:35:23.145Z,15.00
2022-09-02T22:37:59.703Z,15.00
2022-09-02T22:40:34.107Z,14.90
2022-09-02T22:43:07.809Z,14.90
2022-09-02T22:46:02.410Z,15.10
2022-09-02T22:48:54.931Z,15.00
2022-09-02T22:51:47.951Z,15.00
2022-09-02T22:54:17.717Z,14.80
2022-09-02T22:56:57.920Z,14.80
2022-09-02T22:59:37.151Z,14.80
2022-09-02T23:02:16.463Z,14.70
2022-09-02T23:05:04.097Z,14.60
2022-09-02T23:07:33.274Z,14.50
2022-09-02T23:10:03.517Z,14.40
2022-09-02T23:12:38.835Z,14.30
2022-09-02T23:15:24.946Z,14.20
2022-09-02T23:18:03.570Z,14.20
2022-09-02T23:20:44.767Z,14.10
2022-09-02T23:23:25.366Z,14.10
2022-09-02T23:26:10.033Z,14.10
2022-09-02T23:29:13.909Z,14.10
2022-09-02T23:32:05.829Z,14.10
2022-09-02T23:34:54.153Z,14.00
2022-09-02T23:37:35.178Z,14.00
2022-09-02T23:40:15.993Z,14.00
2022-09-02T23:42:45.083Z,13.90
2022-09-02T23:45:22.082Z,13.90
2022-09-02T23:48:15.352Z,13.80
2022-09-02T23:50:57.994Z,13.70
2022-09-02T23:53:32.629Z,13.70
2022-09-02T23:56:14.276Z,13.70
2022-09-02T23:59:01.307Z,13.60
